createdAt,value
2022-11-25T00:02:29.888Z,6.38
2022-11-25T00:07:50.586Z,6.28
2022-11-25T00:13:11.387Z,6.21
2022-11-25T00:18:32.272Z,6.18
2022-11-25T00:23:54.036Z,6.21
2022-11-25T00:29:15.176Z,6.19
2022-11-25T00:34:35.915Z,6.20
2022-11-25T00:39:57.081Z,6.13
2022-11-25T00:45:17.819Z,6.22
2022-11-25T00:50:38.727Z,6.23
2022-11-25T00:56:14.825Z,6.15
2022-11-25T01:01:36.658Z,6.12
2022-11-25T01:06:59.802Z,6.14
2022-11-25T01:12:20.290Z,6.23
2022-11-25T01:17:41.329Z,6.22
2022-11-25T01:23:02.110Z,6.18
2022-11-25T01:28:23.044Z,6.23
2022-11-25T01:33:46.907Z,6.25
2022-11-25T01:39:16.026Z,6.10
2022-11-25T01:44:39.427Z,6.09
2022-11-25T01:50:02.655Z,6.22
2022-11-25T01:55:23.514Z,6.29
2022-11-25T02:00:51.513Z,6.28
2022-11-25T02:06:20.004Z,6.19
2022-11-25T02:11:42.924Z,6.28
2022-11-25T02:17:03.889Z,6.35
2022-11-25T02:22:45.448Z,6.30
2022-11-25T02:28:09.170Z,6.25
2022-11-25T02:33:32.401Z,6.10
2022-11-25T02:38:57.762Z,6.06
2022-11-25T02:44:20.375Z,5.98
2022-11-25T02:49:41.013Z,6.04
2022-11-25T02:55:01.662Z,5.83
2022-11-25T03:00:22.561Z,5.71
2022-11-25T03:05:43.393Z,5.71
2022-11-25T03:11:04.773Z,5.72
2022-11-25T03:16:26.451Z,5.75
2022-11-25T03:21:47.271Z,5.77
2022-11-25T03:27:08.084Z,5.77
2022-11-25T03:32:29.035Z,5.83
2022-11-25T03:37:49.692Z,5.86
2022-11-25T03:43:10.492Z,5.97
2022-11-25T03:48:33.459Z,5.97
2022-11-25T03:53:54.159Z,5.93
2022-11-25T03:59:16.149Z,5.93
2022-11-25T04:04:37.414Z,5.89
2022-11-25T04:09:58.481Z,5.78
2022-11-25T04:15:22.509Z,5.77
2022-11-25T04:20:47.174Z,5.73
2022-11-25T04:26:07.652Z,5.58
2022-11-25T04:31:33.032Z,5.62
2022-11-25T04:36:53.983Z,5.64
2022-11-25T04:42:33.141Z,5.70
2022-11-25T04:47:56.013Z,5.67
2022-11-25T04:53:17.600Z,5.62
2022-11-25T04:58:56.978Z,5.47
2022-11-25T05:04:17.731Z,5.49
2022-11-25T05:09:38.814Z,5.51
2022-11-25T05:15:22.240Z,5.31
2022-11-25T05:20:43.439Z,5.23
2022-11-25T05:26:04.528Z,5.15
2022-11-25T05:31:37.288Z,5.26
2022-11-25T05:36:59.109Z,5.26
2022-11-25T05:42:20.781Z,5.04
2022-11-25T05:47:42.385Z,5.02
2022-11-25T05:53:04.413Z,5.15
2022-11-25T05:58:28.467Z,5.01
2022-11-25T06:03:52.035Z,4.80
2022-11-25T06:09:14.000Z,4.75
2022-11-25T06:14:35.151Z,4.75
2022-11-25T06:19:56.335Z,4.66
2022-11-25T06:25:17.909Z,4.61
2022-11-25T06:30:40.278Z,4.42
2022-11-25T06:36:17.060Z,4.24
2022-11-25T06:41:37.780Z,4.15
2022-11-25T06:46:58.392Z,4.03
2022-11-25T06:52:19.358Z,4.07
2022-11-25T06:57:39.796Z,4.02
2022-11-25T07:03:00.657Z,4.02
2022-11-25T07:08:25.648Z,3.93
2022-11-25T07:13:48.321Z,3.91
2022-11-25T07:19:10.446Z,3.90
2022-11-25T07:24:31.103Z,3.69
2022-11-25T07:30:03.549Z,3.50
2022-11-25T07:35:33.869Z,3.13
2022-11-25T07:40:54.621Z,3.05
2022-11-25T07:46:22.023Z,3.30
2022-11-25T07:51:56.905Z,3.46
2022-11-25T07:57:17.904Z,3.44
2022-11-25T08:02:38.599Z,3.31
2022-11-25T08:07:59.643Z,3.42
2022-11-25T08:13:20.447Z,3.47
2022-11-25T08:18:41.823Z,3.48
2022-11-25T08:24:03.266Z,3.57
2022-11-25T08:29:23.838Z,3.53
2022-11-25T08:34:44.732Z,3.71
2022-11-25T08:40:07.497Z,3.86
2022-11-25T08:45:28.951Z,3.85
2022-11-25T08:50:53.808Z,3.97
2022-11-25T08:56:15.187Z,4.03
2022-11-25T09:01:36.194Z,4.05
2022-11-25T09:06:57.110Z,4.06
2022-11-25T09:12:18.266Z,4.04
2022-11-25T09:17:39.030Z,3.87
2022-11-25T09:23:00.456Z,3.71
2022-11-25T09:28:21.872Z,3.78
2022-11-25T09:33:42.592Z,3.86
2022-11-25T09:39:03.646Z,3.75
2022-11-25T09:45:00.842Z,3.85
2022-11-25T09:50:29.404Z,3.85
2022-11-25T09:56:00.036Z,3.92
2022-11-25T10:01:23.894Z,4.01
2022-11-25T10:06:55.360Z,4.17
2022-11-25T10:12:24.597Z,4.35
2022-11-25T10:17:49.402Z,4.48
2022-11-25T10:23:23.526Z,4.61
2022-11-25T10:28:55.954Z,4.77
2022-11-25T10:34:35.370Z,4.86
2022-11-25T10:39:57.513Z,5.00
2022-11-25T10:45:20.744Z,4.94
2022-11-25T10:50:55.133Z,4.86
2022-11-25T10:56:19.239Z,4.90
2022-11-25T11:01:39.754Z,4.75
2022-11-25T11:07:07.639Z,4.70
2022-11-25T11:12:29.541Z,4.77
2022-11-25T11:17:50.525Z,4.72
2022-11-25T11:23:15.405Z,5.48
2022-11-25T11:28:37.103Z,5.25
2022-11-25T11:34:11.961Z,5.28
2022-11-25T11:39:51.814Z,5.38
2022-11-25T11:45:35.337Z,5.47
2022-11-25T11:51:08.543Z,5.50
2022-11-25T11:56:37.027Z,5.41
2022-11-25T12:02:18.334Z,5.60
2022-11-25T12:07:48.434Z,5.68
2022-11-25T12:13:35.709Z,5.80
2022-11-25T12:18:59.382Z,5.95
2022-11-25T12:24:23.286Z,5.92
2022-11-25T12:29:53.386Z,5.92
2022-11-25T12:35:20.567Z,6.01
2022-11-25T12:40:54.491Z,5.97
2022-11-25T12:46:15.725Z,6.07
2022-11-25T12:51:52.119Z,6.15
2022-11-25T12:57:27.999Z,6.20
2022-11-25T13:02:48.937Z,6.23
2022-11-25T13:08:36.288Z,6.31
2022-11-25T13:13:57.243Z,6.47
2022-11-25T13:19:19.451Z,6.55
2022-11-25T13:24:41.304Z,6.69
2022-11-25T13:30:02.302Z,6.76
2022-11-25T13:35:23.440Z,6.80
2022-11-25T13:40:56.128Z,6.86
2022-11-25T13:46:28.202Z,6.93
2022-11-25T13:51:53.941Z,7.02
2022-11-25T13:57:18.930Z,7.03
2022-11-25T14:02:45.106Z,7.05
2022-11-25T14:08:26.515Z,6.96
2022-11-25T14:14:06.145Z,6.79
2022-11-25T14:25:26.610Z,6.47
2022-11-25T14:30:53.542Z,6.31
2022-11-25T14:36:17.887Z,6.16
2022-11-25T14:41:42.320Z,6.09
2022-11-25T14:47:04.659Z,5.92
2022-11-25T14:52:28.491Z,5.85
2022-11-25T14:57:49.297Z,5.73
2022-11-25T15:03:17.850Z,5.83
2022-11-25T15:08:41.450Z,5.83
2022-11-25T15:14:03.473Z,5.79
2022-11-25T15:19:32.140Z,5.86
2022-11-25T15:24:56.327Z,5.53
2022-11-25T15:30:22.679Z,5.53
2022-11-25T15:35:44.357Z,5.64
2022-11-25T15:41:06.644Z,5.49
2022-11-25T15:46:28.386Z,5.44
2022-11-25T15:51:58.997Z,5.33
2022-11-25T15:57:25.809Z,5.36
2022-11-25T16:02:46.336Z,5.29
2022-11-25T16:08:19.508Z,5.27
2022-11-25T16:13:40.285Z,5.27
2022-11-25T16:19:10.235Z,5.19
2022-11-25T16:24:32.970Z,5.31
2022-11-25T16:30:08.269Z,5.32
2022-11-25T16:35:29.006Z,5.38
2022-11-25T16:40:51.252Z,5.30
2022-11-25T16:46:15.864Z,5.38
2022-11-25T16:51:36.728Z,5.39
2022-11-25T16:56:58.280Z,5.30
2022-11-25T17:02:20.248Z,5.32
2022-11-25T17:07:41.686Z,5.44
2022-11-25T17:13:03.050Z,5.36
2022-11-25T17:18:25.492Z,5.30
2022-11-25T17:23:48.422Z,5.42
2022-11-25T17:29:14.830Z,5.45
2022-11-25T17:34:39.471Z,5.44
2022-11-25T17:40:04.135Z,6.12
2022-11-25T17:45:25.117Z,6.06
2022-11-25T17:50:46.980Z,5.96
2022-11-25T17:56:19.054Z,5.87
2022-11-25T18:01:39.918Z,5.78
2022-11-25T18:07:00.821Z,5.63
2022-11-25T18:12:26.241Z,5.47
2022-11-25T18:17:47.563Z,5.37
2022-11-25T18:23:09.665Z,5.45
2022-11-25T18:28:31.057Z,5.39
2022-11-25T18:33:51.765Z,5.40
2022-11-25T18:39:12.802Z,5.22
2022-11-25T18:44:37.981Z,4.99
2022-11-25T18:49:59.237Z,5.08
2022-11-25T18:55:21.035Z,5.27
2022-11-25T19:00:41.870Z,5.19
2022-11-25T19:06:03.344Z,5.14
2022-11-25T19:11:32.378Z,5.06
2022-11-25T19:16:53.945Z,4.97
2022-11-25T19:22:15.799Z,4.98
2022-11-25T19:27:40.814Z,4.93
2022-11-25T19:33:02.119Z,4.95
2022-11-25T19:38:26.041Z,4.85
2022-11-25T19:43:47.122Z,4.81
2022-11-25T19:49:09.998Z,4.81
2022-11-25T19:54:30.630Z,5.00
2022-11-25T19:59:52.834Z,4.99
2022-11-25T20:05:17.370Z,4.95
2022-11-25T20:10:38.178Z,4.91
2022-11-25T20:15:59.233Z,4.86
2022-11-25T20:21:27.189Z,4.86
2022-11-25T20:26:48.982Z,4.80
2022-11-25T20:32:17.941Z,4.80
2022-11-25T20:37:51.502Z,4.86
2022-11-25T20:43:23.706Z,4.80
2022-11-25T20:48:44.934Z,4.76
2022-11-25T20:54:06.866Z,4.72
2022-11-25T20:59:28.739Z,4.65
2022-11-25T21:04:49.664Z,4.69
2022-11-25T21:10:19.060Z,4.82
2022-11-25T21:15:39.695Z,4.91
2022-11-25T21:21:00.554Z,4.92
2022-11-25T21:26:23.213Z,5.07
2022-11-25T21:31:44.062Z,5.11
2022-11-25T21:37:04.640Z,5.06
2022-11-25T21:42:25.932Z,4.93
2022-11-25T21:47:46.750Z,4.83
2022-11-25T21:53:17.549Z,4.81
2022-11-25T21:58:38.909Z,4.83
2022-11-25T22:03:59.802Z,4.77
2022-11-25T22:09:20.899Z,4.72
2022-11-25T22:14:41.528Z,4.73
2022-11-25T22:20:05.492Z,4.75
2022-11-25T22:25:28.645Z,4.91
2022-11-25T22:30:51.038Z,4.86
2022-11-25T22:36:32.675Z,4.86
2022-11-25T22:41:56.412Z,4.92
2022-11-25T22:47:36.175Z,4.95
2022-11-25T22:52:57.973Z,4.93
2022-11-25T22:58:20.121Z,5.03
2022-11-25T23:03:41.633Z,5.07
2022-11-25T23:09:03.024Z,4.97
2022-11-25T23:14:23.955Z,4.88
2022-11-25T23:19:44.868Z,4.97
2022-11-25T23:25:05.928Z,5.14
2022-11-25T23:30:28.070Z,5.12
2022-11-25T23:35:49.220Z,5.03
2022-11-25T23:41:20.927Z,5.03
2022-11-25T23:46:42.387Z,5.09
2022-11-25T23:52:07.777Z,5.17
2022-11-25T23:57:31.444Z,5.01
